createdAt,value
2023-03-24T00:01:56.262Z,1.52
2023-03-24T00:04:25.162Z,0.75
2023-03-24T00:06:52.619Z,0.80
2023-03-24T00:09:19.615Z,0.93
2023-03-24T00:11:46.552Z,1.08
2023-03-24T00:14:13.624Z,1.00
2023-03-24T00:16:45.529Z,1.15
2023-03-24T00:19:15.105Z,0.88
2023-03-24T00:21:42.449Z,0.98
2023-03-24T00:24:09.698Z,1.20
2023-03-24T00:26:39.724Z,0.90
2023-03-24T00:29:11.824Z,1.10
2023-03-24T00:31:40.330Z,1.15
2023-03-24T00:34:08.829Z,1.23
2023-03-24T00:36:36.220Z,1.40
2023-03-24T00:39:04.858Z,1.30
2023-03-24T00:41:31.967Z,1.67
2023-03-24T00:44:00.156Z,1.30
2023-03-24T00:46:30.290Z,1.80
2023-03-24T00:49:02.794Z,1.10
2023-03-24T00:51:40.798Z,1.42
2023-03-24T00:54:12.760Z,1.40
2023-03-24T00:56:40.818Z,1.25
2023-03-24T00:59:10.257Z,1.20
2023-03-24T01:01:37.792Z,1.30
2023-03-24T01:04:06.136Z,1.10
2023-03-24T01:06:36.715Z,0.73
2023-03-24T01:09:05.701Z,1.02
2023-03-24T01:11:37.700Z,1.00
2023-03-24T01:14:05.098Z,1.20
2023-03-24T01:16:32.412Z,1.23
2023-03-24T01:18:59.523Z,1.20
2023-03-24T01:21:26.463Z,1.15
2023-03-24T01:23:54.133Z,1.40
2023-03-24T01:26:21.341Z,1.27
2023-03-24T01:28:48.355Z,1.80
2023-03-24T01:31:15.297Z,1.63
2023-03-24T01:33:42.362Z,1.40
2023-03-24T01:36:09.519Z,1.58
2023-03-24T01:38:36.599Z,1.75
2023-03-24T01:41:04.776Z,1.80
2023-03-24T01:43:32.914Z,2.22
2023-03-24T01:46:24.359Z,1.55
2023-03-24T01:48:52.578Z,1.40
2023-03-24T01:51:36.394Z,1.38
2023-03-24T01:54:22.088Z,1.23
2023-03-24T01:57:02.814Z,1.60
2023-03-24T01:59:31.171Z,1.30
2023-03-24T02:02:03.375Z,1.00
2023-03-24T02:04:43.545Z,1.55
2023-03-24T02:07:33.801Z,1.33
2023-03-24T02:10:02.720Z,1.50
2023-03-24T02:12:30.758Z,1.25
2023-03-24T02:14:57.715Z,1.20
2023-03-24T02:17:54.695Z,1.15
2023-03-24T02:20:55.817Z,1.42
2023-03-24T02:23:47.634Z,1.00
2023-03-24T02:26:34.909Z,1.10
2023-03-24T02:29:43.503Z,1.45
2023-03-24T02:32:30.328Z,1.20
2023-03-24T02:35:25.009Z,1.48
2023-03-24T02:38:09.976Z,1.20
2023-03-24T02:40:36.824Z,1.48
2023-03-24T02:43:13.804Z,1.20
2023-03-24T02:45:57.283Z,0.80
2023-03-24T02:48:29.906Z,0.98
2023-03-24T02:51:11.737Z,1.20
2023-03-24T02:53:38.646Z,1.30
2023-03-24T02:56:13.793Z,1.48
2023-03-24T02:58:59.060Z,1.17
2023-03-24T03:01:44.146Z,1.48
2023-03-24T03:04:17.778Z,1.13
2023-03-24T03:06:47.494Z,1.15
2023-03-24T03:09:16.418Z,1.10
2023-03-24T03:11:45.396Z,1.45
2023-03-24T03:14:18.749Z,1.02
2023-03-24T03:19:19.029Z,1.08
2023-03-24T03:21:46.842Z,0.90
2023-03-24T03:24:31.151Z,1.08
2023-03-24T03:27:02.784Z,1.13
2023-03-24T03:29:34.007Z,1.00
2023-03-24T03:32:07.949Z,1.17
2023-03-24T03:34:41.570Z,2.20
2023-03-24T03:37:22.390Z,1.08
2023-03-24T03:40:00.393Z,1.05
2023-03-24T03:42:27.355Z,1.05
2023-03-24T03:44:54.205Z,0.93
2023-03-24T03:47:23.084Z,2.05
2023-03-24T03:49:50.646Z,2.63
2023-03-24T03:52:17.663Z,1.30
2023-03-24T03:54:44.533Z,0.90
2023-03-24T03:57:11.689Z,0.98
2023-03-24T03:59:39.143Z,0.85
2023-03-24T04:02:21.306Z,1.55
2023-03-24T04:05:14.202Z,1.05
2023-03-24T04:08:09.951Z,0.80
2023-03-24T04:10:42.514Z,1.77
2023-03-24T04:13:26.632Z,1.00
2023-03-24T04:16:21.469Z,1.67
2023-03-24T04:19:14.328Z,1.48
2023-03-24T04:21:48.821Z,1.35
2023-03-24T04:24:30.132Z,1.60
2023-03-24T04:27:40.249Z,1.40
2023-03-24T04:30:39.988Z,2.13
2023-03-24T04:33:22.459Z,2.00
2023-03-24T04:35:52.506Z,1.85
2023-03-24T04:38:28.319Z,1.83
2023-03-24T04:40:55.777Z,1.30
2023-03-24T04:43:25.116Z,1.20
2023-03-24T04:45:52.926Z,1.17
2023-03-24T04:48:20.425Z,1.60
2023-03-24T04:50:59.125Z,1.10
2023-03-24T04:53:26.337Z,1.60
2023-03-24T04:56:11.978Z,2.35
2023-03-24T04:58:38.879Z,1.10
2023-03-24T05:01:06.610Z,0.90
2023-03-24T05:03:38.220Z,0.90
2023-03-24T05:06:08.256Z,1.13
2023-03-24T05:08:35.159Z,1.50
2023-03-24T05:11:02.166Z,1.30
2023-03-24T05:13:29.118Z,1.15
2023-03-24T05:15:56.041Z,1.85
2023-03-24T05:18:23.073Z,1.27
2023-03-24T05:20:49.974Z,1.15
2023-03-24T05:23:17.040Z,1.80
2023-03-24T05:25:44.330Z,1.35
2023-03-24T05:28:11.292Z,1.50
2023-03-24T05:30:38.248Z,1.40
2023-03-24T05:33:05.871Z,1.40
2023-03-24T05:35:32.928Z,1.77
2023-03-24T05:37:59.874Z,1.70
2023-03-24T05:40:26.787Z,1.30
2023-03-24T05:42:53.697Z,1.45
2023-03-24T05:45:20.610Z,1.30
2023-03-24T05:47:48.199Z,1.52
2023-03-24T05:50:15.259Z,1.90
2023-03-24T05:52:42.233Z,1.83
2023-03-24T05:55:09.556Z,1.60
2023-03-24T05:57:36.868Z,1.55
2023-03-24T06:00:16.225Z,1.65
2023-03-24T06:02:44.520Z,1.80
2023-03-24T06:05:11.947Z,1.60
2023-03-24T06:07:39.263Z,1.08
2023-03-24T06:10:07.862Z,1.20
2023-03-24T06:12:34.771Z,1.70
2023-03-24T06:15:01.732Z,1.48
2023-03-24T06:17:32.275Z,1.20
2023-03-24T06:20:04.753Z,1.17
2023-03-24T06:22:32.873Z,1.40
2023-03-24T06:24:59.945Z,1.60
2023-03-24T06:27:30.466Z,1.20
2023-03-24T06:29:57.905Z,2.17
2023-03-24T06:32:25.580Z,1.30
2023-03-24T06:34:52.896Z,1.52
2023-03-24T06:37:21.401Z,1.80
2023-03-24T06:39:48.427Z,1.50
2023-03-24T06:42:16.213Z,1.35
2023-03-24T06:44:43.486Z,0.90
2023-03-24T06:47:10.314Z,1.40
2023-03-24T06:49:37.392Z,0.80
2023-03-24T06:52:04.864Z,0.95
2023-03-24T06:54:31.908Z,0.93
2023-03-24T06:56:58.996Z,1.00
2023-03-24T06:59:25.934Z,1.65
2023-03-24T07:01:53.358Z,1.33
2023-03-24T07:04:21.292Z,1.58
2023-03-24T07:07:01.313Z,1.00
2023-03-24T07:09:35.190Z,0.82
2023-03-24T07:12:03.600Z,1.40
2023-03-24T07:14:30.348Z,2.05
2023-03-24T07:16:57.213Z,1.40
2023-03-24T07:19:24.113Z,1.60
2023-03-24T07:21:51.154Z,1.70
2023-03-24T07:24:18.206Z,1.50
2023-03-24T07:26:45.238Z,1.00
2023-03-24T07:29:13.065Z,1.23
2023-03-24T07:31:40.918Z,1.83
2023-03-24T07:34:08.385Z,1.95
2023-03-24T07:36:35.554Z,1.70
2023-03-24T07:39:04.819Z,1.45
2023-03-24T07:41:32.745Z,2.22
2023-03-24T07:43:59.606Z,1.70
2023-03-24T07:46:26.507Z,1.60
2023-03-24T07:48:53.594Z,1.67
2023-03-24T07:51:20.699Z,1.70
2023-03-24T07:53:47.873Z,1.67
2023-03-24T07:56:15.997Z,2.00
2023-03-24T07:58:43.033Z,1.92
2023-03-24T08:01:10.576Z,2.78
2023-03-24T08:03:38.313Z,1.60
2023-03-24T08:06:05.781Z,2.38
2023-03-24T08:08:32.616Z,1.50
2023-03-24T08:10:59.530Z,1.48
2023-03-24T08:13:26.781Z,1.83
2023-03-24T08:15:54.395Z,1.83
2023-03-24T08:18:22.827Z,1.60
2023-03-24T08:20:50.024Z,1.30
2023-03-24T08:23:18.136Z,2.10
2023-03-24T08:25:45.244Z,1.65
2023-03-24T08:28:12.084Z,2.20
2023-03-24T08:30:39.092Z,2.38
2023-03-24T08:33:06.211Z,2.72
2023-03-24T08:35:34.567Z,2.17
2023-03-24T08:38:06.136Z,2.80
2023-03-24T08:40:34.804Z,1.97
2023-03-24T08:43:03.478Z,1.90
2023-03-24T08:45:31.667Z,2.05
2023-03-24T08:48:00.528Z,2.38
2023-03-24T08:50:29.839Z,1.90
2023-03-24T08:52:57.042Z,2.50
2023-03-24T08:55:24.008Z,2.22
2023-03-24T08:57:51.323Z,1.73
2023-03-24T09:00:19.298Z,2.30
2023-03-24T09:02:47.220Z,2.47
2023-03-24T09:05:15.778Z,2.28
2023-03-24T09:07:42.832Z,2.80
2023-03-24T09:10:10.420Z,1.60
2023-03-24T09:12:37.614Z,1.90
2023-03-24T09:15:05.253Z,2.28
2023-03-24T09:17:32.819Z,1.73
2023-03-24T09:20:01.494Z,2.08
2023-03-24T09:22:29.347Z,1.60
2023-03-24T09:24:56.571Z,1.48
2023-03-24T09:27:23.572Z,1.30
2023-03-24T09:29:50.819Z,1.38
2023-03-24T09:32:17.950Z,1.25
2023-03-24T09:34:44.831Z,1.35
2023-03-24T09:37:11.931Z,1.23
2023-03-24T09:39:38.846Z,2.42
2023-03-24T09:42:06.454Z,1.75
2023-03-24T09:44:44.438Z,1.65
2023-03-24T09:47:30.453Z,1.48
2023-03-24T09:50:00.144Z,1.40
2023-03-24T09:52:46.130Z,1.63
2023-03-24T09:55:15.380Z,1.52
2023-03-24T09:57:44.073Z,1.77
2023-03-24T10:00:28.299Z,1.50
2023-03-24T10:02:59.621Z,1.98
2023-03-24T10:05:45.872Z,1.40
2023-03-24T10:08:36.327Z,1.42
2023-03-24T10:11:12.065Z,1.73
2023-03-24T10:14:01.561Z,1.45
2023-03-24T10:16:49.787Z,1.60
2023-03-24T10:19:22.798Z,1.83
2023-03-24T10:22:06.648Z,1.40
2023-03-24T10:24:44.800Z,1.92
2023-03-24T10:27:23.343Z,2.03
2023-03-24T10:29:50.879Z,1.60
2023-03-24T10:32:27.991Z,1.50
2023-03-24T10:35:02.913Z,2.08
2023-03-24T10:37:29.773Z,1.73
2023-03-24T10:39:56.808Z,2.22
2023-03-24T10:42:28.303Z,1.60
2023-03-24T10:44:55.235Z,1.60
2023-03-24T10:47:27.504Z,1.85
2023-03-24T10:49:59.144Z,1.30
2023-03-24T10:52:26.585Z,1.40
2023-03-24T10:54:55.441Z,1.42
2023-03-24T10:57:23.383Z,1.30
2023-03-24T11:00:02.102Z,1.80
2023-03-24T11:02:32.379Z,1.30
2023-03-24T11:05:23.596Z,1.98
2023-03-24T11:07:51.112Z,1.55
2023-03-24T11:10:21.093Z,1.60
2023-03-24T11:12:53.927Z,1.88
2023-03-24T11:15:22.898Z,1.30
2023-03-24T11:18:03.790Z,1.90
2023-03-24T11:20:34.462Z,1.35
2023-03-24T11:23:12.071Z,1.40
2023-03-24T11:25:40.930Z,1.98
2023-03-24T11:28:15.388Z,1.27
2023-03-24T11:30:52.455Z,1.38
2023-03-24T11:33:36.121Z,1.50
2023-03-24T11:36:36.069Z,1.20
2023-03-24T11:39:13.297Z,1.52
2023-03-24T11:41:43.106Z,1.73
2023-03-24T11:44:24.101Z,1.83
2023-03-24T11:46:53.653Z,1.30
2023-03-24T11:49:22.685Z,1.27
2023-03-24T11:51:51.879Z,1.20
2023-03-24T11:54:19.883Z,1.00
2023-03-24T11:56:50.967Z,1.02
2023-03-24T11:59:39.818Z,1.35
2023-03-24T12:02:36.262Z,1.55
2023-03-24T12:05:33.997Z,1.40
2023-03-24T12:08:51.732Z,1.65
2023-03-24T12:11:24.670Z,1.40
2023-03-24T12:13:51.681Z,1.42
2023-03-24T12:16:28.425Z,1.58
2023-03-24T12:19:18.514Z,1.38
2023-03-24T12:22:03.439Z,1.70
2023-03-24T12:24:58.375Z,1.40
2023-03-24T12:27:43.415Z,1.30
2023-03-24T12:30:35.792Z,1.40
2023-03-24T12:33:33.797Z,1.60
2023-03-24T12:36:24.202Z,2.40
2023-03-24T12:39:01.594Z,1.80
2023-03-24T12:41:42.323Z,1.90
2023-03-24T12:44:27.967Z,1.48
2023-03-24T12:47:30.164Z,1.40
2023-03-24T12:50:29.545Z,2.03
2023-03-24T12:53:55.436Z,1.70
2023-03-24T12:56:52.173Z,1.80
2023-03-24T12:59:41.095Z,1.60
2023-03-24T13:02:23.305Z,2.13
2023-03-24T13:04:50.540Z,2.07
2023-03-24T13:07:19.167Z,1.40
2023-03-24T13:09:56.012Z,1.80
2023-03-24T13:12:33.861Z,2.22
2023-03-24T13:15:13.136Z,1.70
2023-03-24T13:17:45.339Z,1.90
2023-03-24T13:20:23.353Z,1.58
2023-03-24T13:22:50.406Z,2.13
2023-03-24T13:25:47.247Z,2.10
2023-03-24T13:28:17.440Z,1.90
2023-03-24T13:30:44.282Z,1.83
2023-03-24T13:33:38.696Z,1.80
2023-03-24T13:36:15.040Z,2.17
2023-03-24T13:38:53.019Z,2.42
2023-03-24T13:41:21.276Z,2.13
2023-03-24T13:43:52.340Z,1.85
2023-03-24T13:46:19.404Z,1.75
2023-03-24T13:48:54.834Z,1.92
2023-03-24T13:51:31.585Z,1.50
2023-03-24T13:54:16.307Z,2.05
2023-03-24T13:56:56.109Z,2.05
2023-03-24T13:59:39.051Z,1.63
2023-03-24T14:02:28.736Z,2.00
2023-03-24T14:04:58.779Z,1.30
2023-03-24T14:07:38.800Z,1.90
2023-03-24T14:10:14.778Z,1.92
2023-03-24T14:12:54.476Z,1.50
2023-03-24T14:15:45.797Z,1.98
2023-03-24T14:18:26.272Z,1.63
2023-03-24T14:20:57.271Z,1.35
2023-03-24T14:23:30.097Z,1.80
2023-03-24T14:28:30.293Z,2.20
2023-03-24T14:31:15.726Z,1.98
2023-03-24T14:33:54.910Z,1.40
2023-03-24T14:36:40.011Z,1.88
2023-03-24T14:39:29.818Z,1.42
2023-03-24T14:41:59.058Z,1.60
2023-03-24T14:44:45.026Z,1.60
2023-03-24T14:47:14.714Z,1.25
2023-03-24T14:49:43.803Z,1.70
2023-03-24T14:52:35.002Z,1.30
2023-03-24T14:55:10.293Z,1.67
2023-03-24T14:57:41.194Z,1.30
2023-03-24T15:00:12.168Z,1.50
2023-03-24T15:02:48.203Z,1.73
2023-03-24T15:05:15.592Z,1.10
2023-03-24T15:07:43.102Z,1.10
2023-03-24T15:10:17.006Z,1.30
2023-03-24T15:12:45.484Z,2.10
2023-03-24T15:15:30.706Z,1.67
2023-03-24T15:17:57.732Z,1.52
2023-03-24T15:20:27.557Z,1.75
2023-03-24T15:22:55.463Z,1.55
2023-03-24T15:25:28.010Z,1.15
2023-03-24T15:27:56.706Z,1.92
2023-03-24T15:30:24.528Z,2.30
2023-03-24T15:32:51.799Z,1.75
2023-03-24T15:35:20.868Z,2.33
2023-03-24T15:37:56.459Z,2.20
2023-03-24T15:40:26.907Z,2.13
2023-03-24T15:42:55.464Z,1.20
2023-03-24T15:45:31.016Z,1.85
2023-03-24T15:47:58.404Z,1.98
2023-03-24T15:50:35.465Z,2.05
2023-03-24T15:53:14.614Z,2.38
2023-03-24T15:55:42.894Z,2.00
2023-03-24T15:58:28.582Z,1.40
2023-03-24T16:01:00.015Z,1.95
2023-03-24T16:03:27.166Z,1.70
2023-03-24T16:05:55.603Z,1.40
2023-03-24T16:08:39.200Z,1.95
2023-03-24T16:11:10.925Z,1.48
2023-03-24T16:13:42.314Z,1.92
2023-03-24T16:16:15.205Z,1.50
2023-03-24T16:18:46.275Z,1.77
2023-03-24T16:21:17.128Z,2.17
2023-03-24T16:23:44.742Z,1.98
2023-03-24T16:26:19.603Z,1.63
2023-03-24T16:28:47.943Z,2.40
2023-03-24T16:31:35.734Z,2.20
2023-03-24T16:34:02.728Z,1.60
2023-03-24T16:36:29.582Z,1.52
2023-03-24T16:38:57.791Z,1.60
2023-03-24T16:41:25.097Z,1.10
2023-03-24T16:43:53.346Z,1.60
2023-03-24T16:46:26.445Z,1.40
2023-03-24T16:51:20.483Z,1.90
2023-03-24T16:53:47.662Z,1.30
2023-03-24T16:56:16.375Z,1.60
2023-03-24T16:58:43.557Z,2.15
2023-03-24T17:01:33.549Z,2.20
2023-03-24T17:04:17.385Z,1.85
2023-03-24T17:06:47.191Z,2.00
2023-03-24T17:09:14.784Z,1.85
2023-03-24T17:11:43.718Z,2.28
2023-03-24T17:14:12.371Z,2.08
2023-03-24T17:16:43.940Z,1.83
2023-03-24T17:19:20.871Z,1.70
2023-03-24T17:22:05.577Z,2.53
2023-03-24T17:24:35.913Z,2.70
2023-03-24T17:27:03.947Z,1.85
2023-03-24T17:29:31.771Z,2.22
2023-03-24T17:32:01.669Z,1.90
2023-03-24T17:34:28.483Z,2.10
2023-03-24T17:36:56.942Z,1.90
2023-03-24T17:39:23.744Z,2.25
2023-03-24T17:41:50.721Z,1.80
2023-03-24T17:44:17.642Z,1.48
2023-03-24T17:46:44.573Z,0.82
2023-03-24T17:49:11.550Z,0.68
2023-03-24T17:51:38.500Z,0.80
2023-03-24T17:54:05.722Z,0.57
2023-03-24T17:56:32.718Z,0.93
2023-03-24T17:58:59.769Z,0.93
2023-03-24T18:01:29.590Z,0.77
2023-03-24T18:03:57.517Z,0.73
2023-03-24T18:06:24.447Z,1.02
2023-03-24T18:08:51.624Z,1.15
2023-03-24T18:11:18.483Z,0.82
2023-03-24T18:13:45.640Z,0.85
2023-03-24T18:16:20.601Z,1.10
2023-03-24T18:18:49.282Z,0.80
2023-03-24T18:21:16.070Z,0.80
2023-03-24T18:23:43.026Z,0.82
2023-03-24T18:26:10.489Z,0.30
2023-03-24T18:28:37.971Z,0.28
2023-03-24T18:31:09.690Z,0.50
2023-03-24T18:33:36.453Z,0.70
2023-03-24T18:36:04.316Z,0.50
2023-03-24T18:38:31.276Z,0.70
2023-03-24T18:41:05.291Z,0.50
2023-03-24T18:43:34.613Z,0.60
2023-03-24T18:46:01.451Z,0.40
2023-03-24T18:48:28.310Z,0.30
2023-03-24T18:50:55.092Z,0.30
2023-03-24T18:53:22.250Z,0.32
2023-03-24T18:55:50.446Z,0.57
2023-03-24T18:58:17.868Z,0.30
2023-03-24T19:00:49.117Z,0.40
2023-03-24T19:03:16.438Z,0.38
2023-03-24T19:05:43.261Z,0.80
2023-03-24T19:08:14.676Z,0.50
2023-03-24T19:10:42.884Z,1.00
2023-03-24T19:13:13.208Z,0.80
2023-03-24T19:15:40.306Z,0.88
2023-03-24T19:18:07.265Z,1.02
2023-03-24T19:20:35.085Z,1.45
2023-03-24T19:23:02.258Z,1.38
2023-03-24T19:25:29.056Z,1.50
2023-03-24T19:27:56.032Z,1.38
2023-03-24T19:30:22.779Z,1.48
2023-03-24T19:32:49.797Z,1.75
2023-03-24T19:35:16.688Z,1.70
2023-03-24T19:37:43.509Z,1.67
2023-03-24T19:40:11.882Z,1.55
2023-03-24T19:42:42.344Z,1.38
2023-03-24T19:45:10.543Z,1.75
2023-03-24T19:47:37.710Z,2.88
2023-03-24T19:50:07.038Z,1.70
2023-03-24T19:52:34.535Z,2.35
2023-03-24T19:55:01.593Z,2.03
2023-03-24T19:57:30.516Z,1.27
2023-03-24T19:59:57.682Z,1.42
2023-03-24T20:02:25.011Z,1.45
2023-03-24T20:04:52.179Z,1.73
2023-03-24T20:07:19.109Z,1.95
2023-03-24T20:09:46.515Z,2.33
2023-03-24T20:12:13.391Z,2.13
2023-03-24T20:14:40.498Z,1.85
2023-03-24T20:17:07.756Z,1.80
2023-03-24T20:19:37.054Z,2.15
2023-03-24T20:22:03.886Z,1.95
2023-03-24T20:24:31.897Z,1.85
2023-03-24T20:26:58.703Z,2.10
2023-03-24T20:29:26.297Z,1.55
2023-03-24T20:31:53.320Z,2.00
2023-03-24T20:34:20.151Z,1.80
2023-03-24T20:36:46.941Z,2.15
2023-03-24T20:39:13.977Z,1.83
2023-03-24T20:41:40.985Z,3.08
2023-03-24T20:44:07.892Z,2.75
2023-03-24T20:46:35.331Z,2.10
2023-03-24T20:49:02.230Z,1.85
2023-03-24T20:51:29.317Z,2.03
2023-03-24T20:53:58.816Z,2.53
2023-03-24T20:56:25.747Z,2.72
2023-03-24T20:58:52.659Z,1.83
2023-03-24T21:01:23.815Z,2.10
2023-03-24T21:03:51.729Z,1.90
2023-03-24T21:06:19.100Z,1.42
2023-03-24T21:08:46.109Z,1.42
2023-03-24T21:11:13.008Z,2.05
2023-03-24T21:13:40.863Z,2.30
2023-03-24T21:16:08.854Z,2.92
2023-03-24T21:18:36.722Z,2.65
2023-03-24T21:21:07.272Z,2.35
2023-03-24T21:23:39.300Z,2.75
2023-03-24T21:26:07.469Z,2.60
2023-03-24T21:28:34.387Z,2.38
2023-03-24T21:31:21.873Z,2.05
2023-03-24T21:33:48.956Z,2.03
2023-03-24T21:36:16.061Z,2.33
2023-03-24T21:38:44.433Z,1.80
2023-03-24T21:41:11.440Z,2.05
2023-03-24T21:43:40.484Z,2.47
2023-03-24T21:46:15.078Z,1.98
2023-03-24T21:48:50.107Z,1.88
2023-03-24T21:51:19.026Z,1.65
2023-03-24T21:53:47.641Z,2.05
2023-03-24T21:56:14.542Z,2.03
2023-03-24T21:58:42.234Z,2.55
2023-03-24T22:01:09.797Z,1.65
2023-03-24T22:03:37.371Z,2.42
2023-03-24T22:06:10.679Z,2.22
2023-03-24T22:11:06.261Z,1.50
2023-03-24T22:13:33.514Z,1.90
2023-03-24T22:16:02.115Z,1.63
2023-03-24T22:18:30.441Z,1.75
2023-03-24T22:21:01.121Z,1.77
2023-03-24T22:23:32.812Z,1.55
2023-03-24T22:26:02.098Z,2.20
2023-03-24T22:28:29.427Z,1.77
2023-03-24T22:31:08.010Z,1.70
2023-03-24T22:33:35.184Z,1.88
2023-03-24T22:36:02.241Z,1.80
2023-03-24T22:38:29.154Z,1.98
2023-03-24T22:41:00.457Z,2.08
2023-03-24T22:43:27.685Z,1.92
2023-03-24T22:45:54.557Z,2.08
2023-03-24T22:48:21.441Z,1.52
2023-03-24T22:50:48.479Z,1.65
2023-03-24T22:53:15.727Z,1.90
2023-03-24T22:55:44.585Z,1.90
2023-03-24T22:58:13.178Z,1.30
2023-03-24T23:00:44.081Z,1.85
2023-03-24T23:03:11.201Z,1.90
2023-03-24T23:05:42.278Z,1.60
2023-03-24T23:08:09.538Z,2.35
2023-03-24T23:10:37.187Z,1.55
2023-03-24T23:13:04.270Z,2.03
2023-03-24T23:15:32.065Z,1.60
2023-03-24T23:17:59.769Z,1.80
2023-03-24T23:20:28.375Z,1.63
2023-03-24T23:22:55.973Z,1.67
2023-03-24T23:25:23.264Z,3.05
2023-03-24T23:27:50.453Z,1.75
2023-03-24T23:30:17.357Z,2.05
2023-03-24T23:32:46.775Z,1.58
2023-03-24T23:35:13.927Z,1.45
2023-03-24T23:37:40.716Z,1.33
2023-03-24T23:40:15.629Z,1.25
2023-03-24T23:42:44.680Z,1.15
2023-03-24T23:45:14.742Z,1.80
2023-03-24T23:47:42.782Z,1.17
2023-03-24T23:50:10.120Z,2.20
2023-03-24T23:52:37.569Z,1.73
2023-03-24T23:55:04.858Z,1.40
2023-03-24T23:57:32.806Z,1.45
